createdAt,value
2019-03-24T11:37:29.964Z,23.00
2019-03-24T11:39:58.559Z,22.80
2019-03-24T11:42:27.146Z,22.40
2019-03-24T11:44:55.731Z,22.70
2019-03-24T11:47:26.799Z,23.30
2019-03-24T11:49:54.531Z,23.20
2019-03-24T11:52:23.089Z,23.60
2019-03-24T11:54:51.682Z,24.30
2019-03-24T11:57:20.301Z,23.90
2019-03-24T11:59:48.859Z,23.70
2019-03-24T12:02:17.448Z,23.30
2019-03-24T12:04:46.028Z,22.90
2019-03-24T12:07:14.655Z,23.80
2019-03-24T12:09:43.304Z,23.30
2019-03-24T12:12:11.877Z,22.90
2019-03-24T12:14:40.481Z,22.60
2019-03-24T12:17:09.093Z,22.50
2019-03-24T12:19:37.670Z,22.00
2019-03-24T12:22:06.336Z,21.70
2019-03-24T12:24:34.929Z,21.30
2019-03-24T12:27:03.471Z,21.10
2019-03-24T12:29:32.076Z,21.00
2019-03-24T12:32:00.639Z,20.70
2019-03-24T12:34:29.215Z,21.10
2019-03-24T12:36:57.766Z,21.00
2019-03-24T12:39:26.375Z,20.80
2019-03-24T12:41:54.939Z,20.90
2019-03-24T12:44:23.610Z,21.40
2019-03-24T12:46:52.319Z,21.50
2019-03-24T12:49:20.880Z,21.70
2019-03-24T12:51:49.465Z,21.70
2019-03-24T12:54:18.049Z,21.60
2019-03-24T12:56:46.643Z,21.40
2019-03-24T12:59:15.303Z,21.70
2019-03-24T13:01:43.875Z,21.80
2019-03-24T13:04:12.429Z,21.80
2019-03-24T13:06:41.003Z,21.20
2019-03-24T13:09:09.563Z,20.90
2019-03-24T13:11:38.349Z,21.40
2019-03-24T13:14:07.146Z,21.10
2019-03-24T13:16:35.771Z,20.90
2019-03-24T13:19:04.474Z,21.00
2019-03-24T13:21:33.060Z,20.80
2019-03-24T13:24:01.631Z,21.40
2019-03-24T13:26:30.212Z,21.10
2019-03-24T13:28:58.967Z,21.00
2019-03-24T13:31:27.603Z,20.90
2019-03-24T13:33:56.167Z,20.90
2019-03-24T13:36:24.791Z,21.00
2019-03-24T13:38:53.422Z,21.10
2019-03-24T13:41:22.135Z,21.00
2019-03-24T13:43:50.796Z,21.10
2019-03-24T13:46:19.411Z,21.00
2019-03-24T13:48:47.956Z,20.90
2019-03-24T13:51:16.731Z,21.10
2019-03-24T13:53:45.303Z,21.30
2019-03-24T13:56:13.889Z,20.70
2019-03-24T13:58:42.487Z,20.80
2019-03-24T14:01:11.880Z,20.30
2019-03-24T14:03:40.444Z,20.10
2019-03-24T14:06:09.048Z,20.20
2019-03-24T14:08:37.647Z,20.20
2019-03-24T14:11:06.388Z,20.50
2019-03-24T14:13:34.948Z,20.40
2019-03-24T14:16:03.686Z,20.40
2019-03-24T14:18:32.381Z,20.50
2019-03-24T14:21:01.084Z,20.40
2019-03-24T14:23:29.715Z,20.70
2019-03-24T14:25:58.276Z,20.70
2019-03-24T14:28:26.858Z,20.50
2019-03-24T14:30:55.469Z,20.70
2019-03-24T14:33:24.129Z,20.50
2019-03-24T14:35:52.699Z,20.30
2019-03-24T14:38:21.355Z,20.20
2019-03-24T14:40:49.942Z,20.00
2019-03-24T14:43:18.530Z,20.00
2019-03-24T14:45:47.091Z,19.70
2019-03-24T14:48:15.814Z,19.70
2019-03-24T14:50:53.965Z,19.60
2019-03-24T14:53:14.833Z,19.40
2019-03-24T14:55:43.391Z,19.60
2019-03-24T14:58:12.078Z,19.50
2019-03-24T15:00:42.184Z,19.20
2019-03-24T15:03:11.103Z,19.00
2019-03-24T15:05:39.759Z,18.60
2019-03-24T15:08:08.713Z,18.80
2019-03-24T15:10:37.618Z,18.80
2019-03-24T15:13:06.333Z,19.00
2019-03-24T15:15:34.963Z,19.00
2019-03-24T15:18:03.547Z,19.20
2019-03-24T15:20:32.147Z,19.40
2019-03-24T15:23:00.739Z,19.40
2019-03-24T15:25:29.296Z,19.60
2019-03-24T15:27:57.897Z,19.60
2019-03-24T15:30:26.536Z,19.30
2019-03-24T15:32:55.119Z,18.80
2019-03-24T15:35:23.751Z,18.50
2019-03-24T15:37:52.429Z,18.20
2019-03-24T15:40:20.983Z,17.90
2019-03-24T15:42:49.570Z,17.70
2019-03-24T15:45:18.260Z,17.50
2019-03-24T15:47:46.912Z,17.40
2019-03-24T15:50:15.536Z,17.30
2019-03-24T15:52:44.119Z,17.20
2019-03-24T15:55:12.828Z,17.20
2019-03-24T15:57:41.408Z,17.20
2019-03-24T16:00:11.379Z,17.10
2019-03-24T16:02:40.295Z,17.00
2019-03-24T16:05:08.891Z,17.00
2019-03-24T16:07:37.548Z,16.80
2019-03-24T16:10:07.568Z,16.80
2019-03-24T16:12:36.276Z,16.80
2019-03-24T16:15:07.065Z,16.70
2019-03-24T16:17:35.626Z,16.60
2019-03-24T16:20:09.760Z,16.60
2019-03-24T16:22:36.721Z,16.50
2019-03-24T16:25:07.442Z,16.30
2019-03-24T16:27:36.106Z,16.20
2019-03-24T16:30:06.540Z,16.10
2019-03-24T16:32:35.115Z,16.00
2019-03-24T16:35:04.448Z,16.00
2019-03-24T16:37:33.019Z,15.90
2019-03-24T16:40:01.613Z,15.80
2019-03-24T16:42:30.248Z,15.60
2019-03-24T16:44:58.828Z,15.50
2019-03-24T16:47:27.392Z,15.40
2019-03-24T16:49:55.979Z,15.30
2019-03-24T16:52:24.547Z,15.20
2019-03-24T16:54:53.165Z,15.00
2019-03-24T16:57:21.711Z,14.90
2019-03-24T16:59:50.233Z,14.80
2019-03-24T17:02:18.782Z,14.70
2019-03-24T17:04:47.463Z,14.70
2019-03-24T17:07:17.675Z,14.50
2019-03-24T17:09:46.529Z,14.40
2019-03-24T17:12:16.934Z,14.40
2019-03-24T17:14:45.483Z,14.30
2019-03-24T17:17:14.116Z,14.20
2019-03-24T17:19:42.691Z,14.10
2019-03-24T17:22:11.252Z,14.10
2019-03-24T17:24:39.854Z,14.00
2019-03-24T17:27:08.395Z,13.90
2019-03-24T17:29:37.128Z,13.80
2019-03-24T17:32:05.773Z,13.90
2019-03-24T17:34:34.347Z,13.80
2019-03-24T17:37:02.907Z,13.80
2019-03-24T17:39:31.566Z,13.80
2019-03-24T17:42:00.133Z,13.70
2019-03-24T17:44:28.791Z,13.70
2019-03-24T17:46:57.352Z,13.70
2019-03-24T17:49:25.938Z,13.60
2019-03-24T17:52:00.583Z,13.60
2019-03-24T17:54:24.783Z,13.50
2019-03-24T17:56:53.355Z,13.50
2019-03-24T17:59:21.919Z,13.50
2019-03-24T18:01:50.502Z,13.50
2019-03-24T18:04:24.611Z,13.40
2019-03-24T18:06:49.291Z,13.40
2019-03-24T18:09:17.851Z,13.30
2019-03-24T18:11:46.431Z,13.30
2019-03-24T18:14:15.093Z,13.10
2019-03-24T18:16:43.693Z,13.00
2019-03-24T18:19:12.320Z,12.90
2019-03-24T18:21:40.916Z,12.80
2019-03-24T18:24:09.469Z,12.70
2019-03-24T18:26:38.056Z,12.70
2019-03-24T18:29:06.610Z,12.60
2019-03-24T18:31:35.239Z,12.60
2019-03-24T18:34:03.927Z,12.50
2019-03-24T18:36:32.603Z,12.50
2019-03-24T18:39:01.163Z,12.40
2019-03-24T18:41:29.758Z,12.30
2019-03-24T18:43:58.367Z,12.30
2019-03-24T18:46:26.970Z,12.20
2019-03-24T18:48:55.600Z,12.10
2019-03-24T18:51:24.179Z,12.10
2019-03-24T18:53:52.813Z,11.90
2019-03-24T18:56:21.500Z,11.90
2019-03-24T18:58:50.062Z,11.90
2019-03-24T19:01:18.744Z,11.80
2019-03-24T19:03:47.330Z,11.80
2019-03-24T19:06:15.895Z,11.70
2019-03-24T19:08:44.504Z,11.70
2019-03-24T19:11:13.080Z,11.60
2019-03-24T19:13:41.663Z,11.60
2019-03-24T19:16:10.247Z,11.50
2019-03-24T19:18:38.807Z,11.40
2019-03-24T19:21:07.431Z,11.40
2019-03-24T19:23:36.049Z,11.30
2019-03-24T19:26:04.708Z,11.20
2019-03-24T19:28:33.284Z,11.20
2019-03-24T19:31:01.966Z,11.10
2019-03-24T19:33:30.593Z,11.00
2019-03-24T19:35:59.381Z,11.00
2019-03-24T19:38:28.684Z,10.90
2019-03-24T19:40:57.329Z,10.70
2019-03-24T19:43:25.935Z,10.70
2019-03-24T19:45:54.504Z,10.60
2019-03-24T19:48:23.103Z,10.50
2019-03-24T19:50:51.670Z,10.50
2019-03-24T19:53:20.319Z,10.50
2019-03-24T19:55:48.916Z,10.40
2019-03-24T19:58:17.460Z,10.30
2019-03-24T20:00:46.028Z,10.30
2019-03-24T20:03:14.701Z,10.30
2019-03-24T20:05:43.405Z,10.20
2019-03-24T20:08:12.067Z,10.10
2019-03-24T20:10:40.716Z,10.00
2019-03-24T20:13:09.489Z,10.00
2019-03-24T20:15:38.061Z,9.90
2019-03-24T20:18:06.708Z,9.80
2019-03-24T20:20:35.345Z,9.70
2019-03-24T20:23:04.063Z,9.70
2019-03-24T20:25:32.596Z,9.60
2019-03-24T20:28:01.304Z,9.50
2019-03-24T20:30:29.979Z,9.40
2019-03-24T20:32:58.754Z,9.30
2019-03-24T20:35:27.459Z,9.30
2019-03-24T20:37:56.155Z,9.30
2019-03-24T20:40:24.741Z,9.20
2019-03-24T20:42:53.427Z,9.10
2019-03-24T20:45:22.005Z,9.10
2019-03-24T20:47:50.667Z,9.10
2019-03-24T20:50:19.388Z,9.00
2019-03-24T20:52:47.978Z,9.00
2019-03-24T20:55:16.615Z,8.90
2019-03-24T20:57:45.196Z,9.00
2019-03-24T21:00:15.091Z,8.90
2019-03-24T21:02:43.667Z,8.80
2019-03-24T21:05:12.316Z,8.70
2019-03-24T21:07:40.992Z,8.70
2019-03-24T21:10:09.695Z,8.60
2019-03-24T21:12:38.330Z,8.50
2019-03-24T21:15:07.922Z,8.50
2019-03-24T21:17:36.584Z,8.50
2019-03-24T21:20:07.772Z,8.50
2019-03-24T21:22:36.395Z,8.50
2019-03-24T21:25:06.712Z,8.60
2019-03-24T21:27:35.267Z,8.70
2019-03-24T21:30:05.863Z,8.70
2019-03-24T21:32:34.419Z,8.70
2019-03-24T21:35:03.064Z,8.70
2019-03-24T21:37:31.699Z,8.60
2019-03-24T21:40:00.343Z,8.60
2019-03-24T21:42:28.963Z,8.50
2019-03-24T21:44:57.531Z,8.40
2019-03-24T21:47:26.087Z,8.30
2019-03-24T21:49:54.712Z,8.30
2019-03-24T21:52:23.285Z,8.30
2019-03-24T21:54:51.859Z,8.30
2019-03-24T21:57:20.417Z,8.20
2019-03-24T21:59:49.003Z,8.20
2019-03-24T22:02:17.609Z,8.20
2019-03-24T22:04:46.238Z,8.10
2019-03-24T22:07:14.858Z,8.10
2019-03-24T22:09:43.436Z,8.10
2019-03-24T22:12:12.028Z,8.00
2019-03-24T22:14:40.615Z,7.90
2019-03-24T22:17:09.384Z,7.80
2019-03-24T22:19:38.774Z,7.70
2019-03-24T22:22:07.455Z,7.60
2019-03-24T22:24:36.041Z,7.50
2019-03-24T22:27:04.663Z,7.40
2019-03-24T22:29:33.230Z,7.30
2019-03-24T22:32:01.827Z,7.30
2019-03-24T22:34:30.417Z,7.20
2019-03-24T22:36:59.002Z,7.20
2019-03-24T22:39:27.750Z,7.10
2019-03-24T22:41:56.297Z,7.10
2019-03-24T22:44:24.947Z,7.10
2019-03-24T22:46:53.573Z,7.10
2019-03-24T22:49:22.253Z,7.20
2019-03-24T22:51:50.805Z,7.20
2019-03-24T22:54:19.384Z,7.20
2019-03-24T22:56:48.048Z,7.30
2019-03-24T22:59:16.579Z,7.30
2019-03-24T23:01:45.239Z,7.50
2019-03-24T23:04:13.828Z,7.50
2019-03-24T23:06:42.499Z,7.60
2019-03-24T23:09:11.419Z,7.60
2019-03-24T23:11:40.047Z,7.70
2019-03-24T23:14:08.627Z,7.70
2019-03-24T23:16:37.191Z,7.60
2019-03-24T23:19:05.839Z,7.70
2019-03-24T23:21:34.471Z,7.60
2019-03-24T23:24:14.617Z,7.70
2019-03-24T23:26:34.966Z,7.70
2019-03-24T23:29:03.608Z,7.70
2019-03-24T23:31:34.132Z,7.60
2019-03-24T23:34:02.752Z,7.60
2019-03-24T23:36:31.415Z,7.60
2019-03-24T23:38:59.967Z,7.60
2019-03-24T23:41:28.596Z,7.70
2019-03-24T23:43:57.156Z,7.70
2019-03-24T23:46:25.736Z,7.80
2019-03-24T23:48:54.288Z,7.70
2019-03-24T23:51:22.865Z,7.70
2019-03-24T23:53:51.435Z,7.60
2019-03-24T23:56:20.016Z,7.60
2019-03-24T23:58:48.580Z,7.60
